sensor_id;sensor_type;location;lat;lon;timestamp;pressure;altitude;pressure_sealevel;temperature;humidity
62057;BME280;48016;50.284;18.860;2023-03-18T00:01:04;98317.79;;;2.68;48.84
62057;BME280;48016;50.284;18.860;2023-03-18T00:03:34;98316.22;;;2.66;48.67
62057;BME280;48016;50.284;18.860;2023-03-18T00:06:08;98314.41;;;2.64;48.79
62057;BME280;48016;50.284;18.860;2023-03-18T00:08:36;98313.48;;;2.63;49.07
62057;BME280;48016;50.284;18.860;2023-03-18T00:11:03;98311.95;;;2.60;49.17
62057;BME280;48016;50.284;18.860;2023-03-18T00:13:34;98313.17;;;2.57;48.95
62057;BME280;48016;50.284;18.860;2023-03-18T00:16:02;98316.03;;;2.53;49.50
62057;BME280;48016;50.284;18.860;2023-03-18T00:18:30;98319.93;;;2.50;49.67
62057;BME280;48016;50.284;18.860;2023-03-18T00:20:58;98318.25;;;2.48;49.65
62057;BME280;48016;50.284;18.860;2023-03-18T00:23:27;98314.91;;;2.48;49.62
62057;BME280;48016;50.284;18.860;2023-03-18T00:25:55;98309.63;;;2.48;49.59
62057;BME280;48016;50.284;18.860;2023-03-18T00:28:23;98310.89;;;2.47;49.44
62057;BME280;48016;50.284;18.860;2023-03-18T00:30:52;98311.02;;;2.48;49.45
62057;BME280;48016;50.284;18.860;2023-03-18T00:33:19;98313.23;;;2.47;49.50
62057;BME280;48016;50.284;18.860;2023-03-18T00:35:46;98308.77;;;2.46;49.59
62057;BME280;48016;50.284;18.860;2023-03-18T00:38:14;98306.26;;;2.45;49.97
62057;BME280;48016;50.284;18.860;2023-03-18T00:40:48;98297.87;;;2.42;49.88
62057;BME280;48016;50.284;18.860;2023-03-18T00:43:20;98295.41;;;2.40;50.02
62057;BME280;48016;50.284;18.860;2023-03-18T00:45:49;98294.54;;;2.37;50.12
62057;BME280;48016;50.284;18.860;2023-03-18T00:48:16;98292.89;;;2.33;49.98
62057;BME280;48016;50.284;18.860;2023-03-18T00:50:43;98287.63;;;2.30;50.09
62057;BME280;48016;50.284;18.860;2023-03-18T00:53:10;98290.86;;;2.25;50.45
62057;BME280;48016;50.284;18.860;2023-03-18T00:55:38;98286.33;;;2.20;50.51
62057;BME280;48016;50.284;18.860;2023-03-18T00:58:05;98278.27;;;2.15;50.86
62057;BME280;48016;50.284;18.860;2023-03-18T01:00:33;98285.07;;;2.10;50.78
62057;BME280;48016;50.284;18.860;2023-03-18T01:03:01;98285.10;;;2.06;51.28
62057;BME280;48016;50.284;18.860;2023-03-18T01:05:27;98287.70;;;2.02;51.30
62057;BME280;48016;50.284;18.860;2023-03-18T01:07:54;98285.16;;;1.98;51.49
62057;BME280;48016;50.284;18.860;2023-03-18T01:10:21;98281.65;;;1.95;51.44
62057;BME280;48016;50.284;18.860;2023-03-18T01:12:47;98277.23;;;1.92;51.95
62057;BME280;48016;50.284;18.860;2023-03-18T01:15:16;98275.11;;;1.91;51.74
62057;BME280;48016;50.284;18.860;2023-03-18T01:17:45;98271.64;;;1.89;51.85
62057;BME280;48016;50.284;18.860;2023-03-18T01:20:13;98268.79;;;1.88;52.00
62057;BME280;48016;50.284;18.860;2023-03-18T01:22:42;98263.05;;;1.85;52.18
62057;BME280;48016;50.284;18.860;2023-03-18T01:25:11;98262.39;;;1.84;52.30
62057;BME280;48016;50.284;18.860;2023-03-18T01:27:38;98259.79;;;1.81;52.28
62057;BME280;48016;50.284;18.860;2023-03-18T01:30:07;98252.00;;;1.80;52.54
62057;BME280;48016;50.284;18.860;2023-03-18T01:32:35;98253.31;;;1.78;52.19
62057;BME280;48016;50.284;18.860;2023-03-18T01:35:03;98249.81;;;1.76;52.16
62057;BME280;48016;50.284;18.860;2023-03-18T01:37:30;98250.91;;;1.75;51.95
62057;BME280;48016;50.284;18.860;2023-03-18T01:39:58;98248.73;;;1.71;51.95
62057;BME280;48016;50.284;18.860;2023-03-18T01:42:26;98251.23;;;1.71;51.82
62057;BME280;48016;50.284;18.860;2023-03-18T01:45:33;98246.27;;;1.69;51.81
62057;BME280;48016;50.284;18.860;2023-03-18T01:47:59;98245.19;;;1.68;51.90
62057;BME280;48016;50.284;18.860;2023-03-18T01:50:31;98243.98;;;1.67;51.73
62057;BME280;48016;50.284;18.860;2023-03-18T01:53:03;98240.91;;;1.66;51.83
62057;BME280;48016;50.284;18.860;2023-03-18T01:55:31;98240.05;;;1.64;51.97
62057;BME280;48016;50.284;18.860;2023-03-18T01:58:01;98239.54;;;1.61;51.63
62057;BME280;48016;50.284;18.860;2023-03-18T02:00:29;98239.73;;;1.58;52.70
62057;BME280;48016;50.284;18.860;2023-03-18T02:02:56;98242.83;;;1.53;53.00
62057;BME280;48016;50.284;18.860;2023-03-18T02:05:25;98241.16;;;1.47;53.42
62057;BME280;48016;50.284;18.860;2023-03-18T02:07:53;98237.88;;;1.40;53.05
62057;BME280;48016;50.284;18.860;2023-03-18T02:10:28;98238.89;;;1.33;53.56
62057;BME280;48016;50.284;18.860;2023-03-18T02:12:59;98235.89;;;1.27;53.75
62057;BME280;48016;50.284;18.860;2023-03-18T02:15:29;98233.79;;;1.23;53.95
62057;BME280;48016;50.284;18.860;2023-03-18T02:18:07;98238.40;;;1.19;54.22
62057;BME280;48016;50.284;18.860;2023-03-18T02:25:51;98235.08;;;1.13;53.68
62057;BME280;48016;50.284;18.860;2023-03-18T02:28:23;98233.60;;;1.12;53.94
62057;BME280;48016;50.284;18.860;2023-03-18T02:30:53;98236.70;;;1.10;54.09
62057;BME280;48016;50.284;18.860;2023-03-18T02:33:23;98231.57;;;1.08;53.98
62057;BME280;48016;50.284;18.860;2023-03-18T02:35:55;98233.41;;;1.08;54.05
62057;BME280;48016;50.284;18.860;2023-03-18T02:38:23;98233.57;;;1.06;53.71
62057;BME280;48016;50.284;18.860;2023-03-18T02:40:50;98230.86;;;1.05;53.94
62057;BME280;48016;50.284;18.860;2023-03-18T02:43:25;98226.35;;;1.05;53.98
62057;BME280;48016;50.284;18.860;2023-03-18T02:48:41;98228.21;;;1.03;54.50
62057;BME280;48016;50.284;18.860;2023-03-18T02:51:11;98232.33;;;1.00;55.25
62057;BME280;48016;50.284;18.860;2023-03-18T02:53:38;98237.04;;;0.98;54.67
62057;BME280;48016;50.284;18.860;2023-03-18T02:56:05;98239.73;;;0.96;54.84
62057;BME280;48016;50.284;18.860;2023-03-18T02:58:33;98237.98;;;0.93;54.51
62057;BME280;48016;50.284;18.860;2023-03-18T03:01:00;98239.32;;;0.91;54.63
62057;BME280;48016;50.284;18.860;2023-03-18T03:03:26;98241.80;;;0.88;54.61
62057;BME280;48016;50.284;18.860;2023-03-18T03:05:55;98242.02;;;0.84;54.72
62057;BME280;48016;50.284;18.860;2023-03-18T03:08:22;98240.96;;;0.80;54.82
62057;BME280;48016;50.284;18.860;2023-03-18T03:10:49;98243.79;;;0.79;54.82
62057;BME280;48016;50.284;18.860;2023-03-18T03:13:19;98249.14;;;0.77;54.66
62057;BME280;48016;50.284;18.860;2023-03-18T03:15:47;98248.10;;;0.76;54.65
62057;BME280;48016;50.284;18.860;2023-03-18T03:18:15;98249.45;;;0.75;54.87
62057;BME280;48016;50.284;18.860;2023-03-18T03:20:42;98252.95;;;0.74;54.74
62057;BME280;48016;50.284;18.860;2023-03-18T03:23:12;98251.55;;;0.72;54.80
62057;BME280;48016;50.284;18.860;2023-03-18T03:25:40;98251.29;;;0.70;54.87
62057;BME280;48016;50.284;18.860;2023-03-18T03:28:07;98257.20;;;0.68;54.99
62057;BME280;48016;50.284;18.860;2023-03-18T03:30:34;98256.46;;;0.67;54.87
62057;BME280;48016;50.284;18.860;2023-03-18T03:33:02;98252.10;;;0.64;54.99
62057;BME280;48016;50.284;18.860;2023-03-18T03:35:29;98251.88;;;0.61;55.12
62057;BME280;48016;50.284;18.860;2023-03-18T03:37:56;98254.20;;;0.60;55.14
62057;BME280;48016;50.284;18.860;2023-03-18T03:40:23;98253.58;;;0.58;55.18
62057;BME280;48016;50.284;18.860;2023-03-18T03:42:51;98252.44;;;0.55;55.28
62057;BME280;48016;50.284;18.860;2023-03-18T03:45:18;98252.84;;;0.54;55.62
62057;BME280;48016;50.284;18.860;2023-03-18T03:47:45;98254.80;;;0.51;55.53
62057;BME280;48016;50.284;18.860;2023-03-18T03:50:13;98257.92;;;0.49;55.55
62057;BME280;48016;50.284;18.860;2023-03-18T03:52:41;98261.28;;;0.46;55.65
62057;BME280;48016;50.284;18.860;2023-03-18T03:55:12;98258.18;;;0.42;55.85
62057;BME280;48016;50.284;18.860;2023-03-18T03:57:40;98258.46;;;0.38;55.87
62057;BME280;48016;50.284;18.860;2023-03-18T04:00:11;98261.63;;;0.34;55.89
62057;BME280;48016;50.284;18.860;2023-03-18T04:02:40;98263.97;;;0.31;56.12
62057;BME280;48016;50.284;18.860;2023-03-18T04:05:08;98262.10;;;0.28;56.13
62057;BME280;48016;50.284;18.860;2023-03-18T04:07:37;98260.87;;;0.23;56.45
62057;BME280;48016;50.284;18.860;2023-03-18T04:10:04;98262.26;;;0.19;56.44
62057;BME280;48016;50.284;18.860;2023-03-18T04:12:31;98265.13;;;0.16;56.50
62057;BME280;48016;50.284;18.860;2023-03-18T04:14:58;98268.54;;;0.14;56.54
62057;BME280;48016;50.284;18.860;2023-03-18T04:17:25;98266.29;;;0.13;56.50
62057;BME280;48016;50.284;18.860;2023-03-18T04:19:52;98270.38;;;0.12;56.44
62057;BME280;48016;50.284;18.860;2023-03-18T04:22:19;98267.16;;;0.11;56.39
62057;BME280;48016;50.284;18.860;2023-03-18T04:24:47;98265.41;;;0.11;56.59
62057;BME280;48016;50.284;18.860;2023-03-18T04:27:13;98268.31;;;0.11;56.69
62057;BME280;48016;50.284;18.860;2023-03-18T04:29:40;98266.27;;;0.08;56.69
62057;BME280;48016;50.284;18.860;2023-03-18T04:32:07;98268.77;;;0.08;56.80
62057;BME280;48016;50.284;18.860;2023-03-18T04:34:35;98264.54;;;0.07;56.61
62057;BME280;48016;50.284;18.860;2023-03-18T04:37:02;98264.73;;;0.05;56.63
62057;BME280;48016;50.284;18.860;2023-03-18T04:39:29;98262.88;;;0.04;56.77
62057;BME280;48016;50.284;18.860;2023-03-18T04:41:56;98264.22;;;0.04;56.62
62057;BME280;48016;50.284;18.860;2023-03-18T04:44:24;98265.28;;;0.04;56.69
62057;BME280;48016;50.284;18.860;2023-03-18T04:46:51;98263.69;;;0.04;56.84
62057;BME280;48016;50.284;18.860;2023-03-18T04:49:19;98260.76;;;0.04;56.98
62057;BME280;48016;50.284;18.860;2023-03-18T04:51:46;98259.81;;;0.05;56.86
62057;BME280;48016;50.284;18.860;2023-03-18T04:54:13;98263.41;;;0.06;57.14
62057;BME280;48016;50.284;18.860;2023-03-18T04:56:40;98262.45;;;0.06;56.92
62057;BME280;48016;50.284;18.860;2023-03-18T04:59:07;98261.48;;;0.08;57.13
62057;BME280;48016;50.284;18.860;2023-03-18T05:01:34;98263.35;;;0.11;57.15
62057;BME280;48016;50.284;18.860;2023-03-18T05:04:01;98264.40;;;0.13;57.17
62057;BME280;48016;50.284;18.860;2023-03-18T05:06:29;98262.64;;;0.16;57.04
62057;BME280;48016;50.284;18.860;2023-03-18T05:08:57;98263.68;;;0.18;57.80
62057;BME280;48016;50.284;18.860;2023-03-18T05:11:25;98264.09;;;0.19;57.90
62057;BME280;48016;50.284;18.860;2023-03-18T05:13:52;98266.36;;;0.22;57.89
62057;BME280;48016;50.284;18.860;2023-03-18T05:16:20;98264.97;;;0.25;58.25
62057;BME280;48016;50.284;18.860;2023-03-18T05:18:47;98266.39;;;0.27;58.23
62057;BME280;48016;50.284;18.860;2023-03-18T05:21:14;98265.10;;;0.31;57.77
62057;BME280;48016;50.284;18.860;2023-03-18T05:23:41;98266.79;;;0.34;57.64
62057;BME280;48016;50.284;18.860;2023-03-18T05:26:08;98265.71;;;0.38;57.52
62057;BME280;48016;50.284;18.860;2023-03-18T05:28:37;98270.41;;;0.47;57.38
62057;BME280;48016;50.284;18.860;2023-03-18T05:31:05;98270.02;;;0.58;57.57
62057;BME280;48016;50.284;18.860;2023-03-18T05:33:31;98272.47;;;0.67;57.66
62057;BME280;48016;50.284;18.860;2023-03-18T05:35:58;98274.59;;;0.80;56.96
62057;BME280;48016;50.284;18.860;2023-03-18T05:38:26;98272.58;;;0.96;56.81
62057;BME280;48016;50.284;18.860;2023-03-18T05:40:53;98274.75;;;1.15;57.06
62057;BME280;48016;50.284;18.860;2023-03-18T05:43:20;98275.58;;;1.36;56.23
62057;BME280;48016;50.284;18.860;2023-03-18T05:45:48;98277.11;;;1.57;55.85
62057;BME280;48016;50.284;18.860;2023-03-18T05:48:15;98278.52;;;1.75;55.81
62057;BME280;48016;50.284;18.860;2023-03-18T05:50:43;98286.55;;;1.95;55.47
62057;BME280;48016;50.284;18.860;2023-03-18T05:53:10;98286.30;;;2.11;55.50
62057;BME280;48016;50.284;18.860;2023-03-18T05:55:38;98290.74;;;2.28;55.19
62057;BME280;48016;50.284;18.860;2023-03-18T05:58:07;98291.89;;;2.43;54.76
62057;BME280;48016;50.284;18.860;2023-03-18T06:00:34;98292.39;;;2.61;54.60
62057;BME280;48016;50.284;18.860;2023-03-18T06:03:03;98295.61;;;2.76;54.25
62057;BME280;48016;50.284;18.860;2023-03-18T06:05:30;98298.99;;;2.84;54.09
62057;BME280;48016;50.284;18.860;2023-03-18T06:07:57;98300.59;;;2.89;53.79
62057;BME280;48016;50.284;18.860;2023-03-18T06:10:25;98304.81;;;2.97;54.09
62057;BME280;48016;50.284;18.860;2023-03-18T06:12:52;98305.27;;;3.10;53.96
62057;BME280;48016;50.284;18.860;2023-03-18T06:15:21;98304.95;;;3.24;53.57
62057;BME280;48016;50.284;18.860;2023-03-18T06:17:49;98304.76;;;3.44;53.64
62057;BME280;48016;50.284;18.860;2023-03-18T06:20:16;98298.81;;;3.69;53.34
62057;BME280;48016;50.284;18.860;2023-03-18T06:22:46;98301.48;;;3.97;53.11
62057;BME280;48016;50.284;18.860;2023-03-18T06:25:17;98302.35;;;4.28;52.99
62057;BME280;48016;50.284;18.860;2023-03-18T06:27:44;98301.15;;;4.62;52.37
62057;BME280;48016;50.284;18.860;2023-03-18T06:30:14;98300.52;;;4.92;51.27
62057;BME280;48016;50.284;18.860;2023-03-18T06:32:42;98303.70;;;5.12;50.44
62057;BME280;48016;50.284;18.860;2023-03-18T06:35:10;98300.45;;;5.30;50.56
62057;BME280;48016;50.284;18.860;2023-03-18T06:37:37;98302.63;;;5.47;49.91
62057;BME280;48016;50.284;18.860;2023-03-18T06:40:05;98300.10;;;5.65;50.24
62057;BME280;48016;50.284;18.860;2023-03-18T06:42:33;98302.69;;;5.80;49.53
62057;BME280;48016;50.284;18.860;2023-03-18T06:45:00;98302.48;;;5.87;48.87
62057;BME280;48016;50.284;18.860;2023-03-18T06:47:27;98303.73;;;5.99;49.17
62057;BME280;48016;50.284;18.860;2023-03-18T06:49:54;98304.93;;;6.12;48.93
62057;BME280;48016;50.284;18.860;2023-03-18T06:52:22;98307.84;;;6.23;48.95
62057;BME280;48016;50.284;18.860;2023-03-18T06:54:49;98307.10;;;6.33;48.98
62057;BME280;48016;50.284;18.860;2023-03-18T06:57:17;98314.58;;;6.40;48.53
62057;BME280;48016;50.284;18.860;2023-03-18T06:59:44;98319.45;;;6.43;48.38
62057;BME280;48016;50.284;18.860;2023-03-18T07:02:11;98326.83;;;6.56;48.46
62057;BME280;48016;50.284;18.860;2023-03-18T07:04:38;98325.87;;;6.70;48.33
62057;BME280;48016;50.284;18.860;2023-03-18T07:07:06;98329.15;;;6.83;47.66
62057;BME280;48016;50.284;18.860;2023-03-18T07:09:33;98335.63;;;7.03;47.35
62057;BME280;48016;50.284;18.860;2023-03-18T07:11:59;98337.39;;;7.22;47.12
62057;BME280;48016;50.284;18.860;2023-03-18T07:14:27;98335.42;;;7.40;46.83
62057;BME280;48016;50.284;18.860;2023-03-18T07:16:54;98340.69;;;7.63;46.25
62057;BME280;48016;50.284;18.860;2023-03-18T07:19:21;98341.58;;;7.81;45.99
62057;BME280;48016;50.284;18.860;2023-03-18T07:21:48;98345.20;;;7.97;45.40
62057;BME280;48016;50.284;18.860;2023-03-18T07:24:15;98344.05;;;8.04;44.90
62057;BME280;48016;50.284;18.860;2023-03-18T07:26:43;98343.22;;;8.13;43.57
62057;BME280;48016;50.284;18.860;2023-03-18T07:29:09;98343.98;;;8.27;43.40
62057;BME280;48016;50.284;18.860;2023-03-18T07:31:36;98342.06;;;8.40;44.09
62057;BME280;48016;50.284;18.860;2023-03-18T07:34:03;98341.75;;;8.46;43.67
62057;BME280;48016;50.284;18.860;2023-03-18T07:36:30;98341.55;;;8.58;42.98
62057;BME280;48016;50.284;18.860;2023-03-18T07:38:57;98339.48;;;8.72;42.92
62057;BME280;48016;50.284;18.860;2023-03-18T07:41:32;98337.34;;;8.82;43.09
62057;BME280;48016;50.284;18.860;2023-03-18T07:43:58;98339.59;;;8.84;42.82
62057;BME280;48016;50.284;18.860;2023-03-18T07:46:26;98338.60;;;8.89;42.59
62057;BME280;48016;50.284;18.860;2023-03-18T07:48:59;98335.76;;;8.99;43.01
62057;BME280;48016;50.284;18.860;2023-03-18T07:51:26;98339.05;;;9.12;42.53
62057;BME280;48016;50.284;18.860;2023-03-18T07:53:53;98334.61;;;9.24;41.82
62057;BME280;48016;50.284;18.860;2023-03-18T07:56:20;98330.28;;;9.31;42.05
62057;BME280;48016;50.284;18.860;2023-03-18T07:58:47;98330.34;;;9.44;42.12
62057;BME280;48016;50.284;18.860;2023-03-18T08:01:14;98324.77;;;9.63;42.06
62057;BME280;48016;50.284;18.860;2023-03-18T08:03:45;98327.66;;;9.72;41.67
62057;BME280;48016;50.284;18.860;2023-03-18T08:06:13;98329.60;;;9.83;41.52
62057;BME280;48016;50.284;18.860;2023-03-18T08:08:41;98328.48;;;9.93;41.54
62057;BME280;48016;50.284;18.860;2023-03-18T08:11:09;98328.37;;;10.08;41.15
62057;BME280;48016;50.284;18.860;2023-03-18T08:13:37;98327.69;;;10.19;40.96
62057;BME280;48016;50.284;18.860;2023-03-18T08:16:06;98331.60;;;10.22;40.49
62057;BME280;48016;50.284;18.860;2023-03-18T08:18:33;98336.16;;;10.18;40.64
62057;BME280;48016;50.284;18.860;2023-03-18T08:21:01;98335.21;;;10.20;40.53
62057;BME280;48016;50.284;18.860;2023-03-18T08:23:28;98337.08;;;10.23;40.24
62057;BME280;48016;50.284;18.860;2023-03-18T08:26:15;98335.70;;;10.28;40.25
62057;BME280;48016;50.284;18.860;2023-03-18T08:28:41;98327.59;;;10.36;40.20
62057;BME280;48016;50.284;18.860;2023-03-18T08:31:08;98329.23;;;10.38;40.26
62057;BME280;48016;50.284;18.860;2023-03-18T08:36:41;98325.53;;;10.45;39.75
62057;BME280;48016;50.284;18.860;2023-03-18T08:39:08;98327.75;;;10.50;39.07
62057;BME280;48016;50.284;18.860;2023-03-18T08:41:35;98332.05;;;10.48;38.72
62057;BME280;48016;50.284;18.860;2023-03-18T08:44:02;98333.49;;;10.52;38.42
62057;BME280;48016;50.284;18.860;2023-03-18T08:46:31;98331.70;;;10.55;38.43
62057;BME280;48016;50.284;18.860;2023-03-18T08:48:58;98333.23;;;10.56;37.40
62057;BME280;48016;50.284;18.860;2023-03-18T08:51:33;98335.46;;;10.63;37.76
62057;BME280;48016;50.284;18.860;2023-03-18T08:53:59;98331.48;;;10.71;37.64
62057;BME280;48016;50.284;18.860;2023-03-18T08:56:26;98329.96;;;10.81;37.77
62057;BME280;48016;50.284;18.860;2023-03-18T08:58:57;98331.41;;;10.91;37.52
62057;BME280;48016;50.284;18.860;2023-03-18T09:01:24;98330.20;;;10.99;37.42
62057;BME280;48016;50.284;18.860;2023-03-18T09:03:51;98325.98;;;11.06;37.17
62057;BME280;48016;50.284;18.860;2023-03-18T09:06:19;98325.09;;;11.17;37.21
62057;BME280;48016;50.284;18.860;2023-03-18T09:08:46;98320.80;;;11.20;36.92
62057;BME280;48016;50.284;18.860;2023-03-18T09:11:13;98320.66;;;11.23;36.82
62057;BME280;48016;50.284;18.860;2023-03-18T09:13:48;98312.98;;;11.22;36.20
62057;BME280;48016;50.284;18.860;2023-03-18T09:16:16;98313.85;;;11.18;36.31
62057;BME280;48016;50.284;18.860;2023-03-18T09:18:43;98313.45;;;11.22;36.46
62057;BME280;48016;50.284;18.860;2023-03-18T09:24:14;98309.33;;;11.26;36.24
62057;BME280;48016;50.284;18.860;2023-03-18T09:26:42;98307.02;;;11.24;36.22
62057;BME280;48016;50.284;18.860;2023-03-18T09:32:14;98308.45;;;11.05;34.93
62057;BME280;48016;50.284;18.860;2023-03-18T09:34:48;98304.00;;;11.06;35.46
62057;BME280;48016;50.284;18.860;2023-03-18T09:37:15;98301.71;;;11.09;35.71
62057;BME280;48016;50.284;18.860;2023-03-18T09:39:44;98306.09;;;11.15;35.75
62057;BME280;48016;50.284;18.860;2023-03-18T09:58:27;98295.86;;;11.53;35.04
62057;BME280;48016;50.284;18.860;2023-03-18T10:01:22;98297.14;;;11.60;34.72
62057;BME280;48016;50.284;18.860;2023-03-18T10:06:19;98294.61;;;11.77;35.04
62057;BME280;48016;50.284;18.860;2023-03-18T10:15:16;98288.73;;;11.92;34.34
62057;BME280;48016;50.284;18.860;2023-03-18T10:17:49;98285.25;;;11.98;34.75
62057;BME280;48016;50.284;18.860;2023-03-18T10:23:41;98290.03;;;12.15;34.62
62057;BME280;48016;50.284;18.860;2023-03-18T10:27:01;98284.27;;;12.10;33.62
62057;BME280;48016;50.284;18.860;2023-03-18T10:29:47;98288.23;;;12.00;33.37
62057;BME280;48016;50.284;18.860;2023-03-18T10:33:19;98285.68;;;11.98;33.90
62057;BME280;48016;50.284;18.860;2023-03-18T10:39:36;98277.06;;;11.87;33.42
62057;BME280;48016;50.284;18.860;2023-03-18T10:42:21;98277.56;;;11.87;32.97
62057;BME280;48016;50.284;18.860;2023-03-18T10:44:50;98276.61;;;11.94;32.72
62057;BME280;48016;50.284;18.860;2023-03-18T10:47:31;98279.41;;;12.00;32.51
62057;BME280;48016;50.284;18.860;2023-03-18T10:50:12;98281.89;;;12.10;32.19
62057;BME280;48016;50.284;18.860;2023-03-18T10:53:19;98276.87;;;12.18;31.58
62057;BME280;48016;50.284;18.860;2023-03-18T10:56:24;98277.67;;;12.30;31.82
62057;BME280;48016;50.284;18.860;2023-03-18T10:58:51;98277.69;;;12.38;31.51
62057;BME280;48016;50.284;18.860;2023-03-18T11:01:44;98275.58;;;12.41;31.23
62057;BME280;48016;50.284;18.860;2023-03-18T11:04:16;98273.91;;;12.43;30.90
62057;BME280;48016;50.284;18.860;2023-03-18T11:06:57;98270.77;;;12.49;30.97
62057;BME280;48016;50.284;18.860;2023-03-18T11:09:51;98270.46;;;12.53;30.80
62057;BME280;48016;50.284;18.860;2023-03-18T11:12:26;98263.69;;;12.57;30.21
62057;BME280;48016;50.284;18.860;2023-03-18T11:14:58;98266.35;;;12.59;30.17
62057;BME280;48016;50.284;18.860;2023-03-18T11:17:26;98264.73;;;12.62;30.19
62057;BME280;48016;50.284;18.860;2023-03-18T11:22:47;98261.20;;;12.62;29.34
62057;BME280;48016;50.284;18.860;2023-03-18T11:25:22;98258.29;;;12.67;29.25
62057;BME280;48016;50.284;18.860;2023-03-18T11:28:29;98261.98;;;12.74;28.77
62057;BME280;48016;50.284;18.860;2023-03-18T11:30:57;98254.81;;;12.73;28.77
62057;BME280;48016;50.284;18.860;2023-03-18T11:33:30;98249.17;;;12.78;29.17
62057;BME280;48016;50.284;18.860;2023-03-18T11:36:04;98249.06;;;12.85;29.24
62057;BME280;48016;50.284;18.860;2023-03-18T11:38:33;98249.52;;;12.94;29.58
62057;BME280;48016;50.284;18.860;2023-03-18T11:44:41;98246.30;;;13.11;29.69
62057;BME280;48016;50.284;18.860;2023-03-18T11:47:28;98246.89;;;13.20;29.84
62057;BME280;48016;50.284;18.860;2023-03-18T11:49:58;98240.29;;;13.27;29.92
62057;BME280;48016;50.284;18.860;2023-03-18T12:01:02;98235.29;;;13.57;29.64
62057;BME280;48016;50.284;18.860;2023-03-18T12:06:25;98232.55;;;13.67;29.96
62057;BME280;48016;50.284;18.860;2023-03-18T12:09:16;98229.69;;;13.78;30.09
62057;BME280;48016;50.284;18.860;2023-03-18T12:32:30;98210.80;;;13.82;29.11
62057;BME280;48016;50.284;18.860;2023-03-18T12:47:31;98203.91;;;13.47;28.57
62057;BME280;48016;50.284;18.860;2023-03-18T12:55:00;98190.09;;;13.22;28.91
62057;BME280;48016;50.284;18.860;2023-03-18T12:57:41;98191.14;;;13.18;29.21
62057;BME280;48016;50.284;18.860;2023-03-18T13:00:31;98190.66;;;13.09;29.08
62057;BME280;48016;50.284;18.860;2023-03-18T13:03:20;98188.77;;;13.04;29.19
62057;BME280;48016;50.284;18.860;2023-03-18T13:06:17;98175.37;;;13.00;28.91
62057;BME280;48016;50.284;18.860;2023-03-18T13:12:38;98186.83;;;12.95;29.30
62057;BME280;48016;50.284;18.860;2023-03-18T13:15:21;98182.16;;;12.95;29.06
62057;BME280;48016;50.284;18.860;2023-03-18T13:21:48;98181.40;;;12.98;28.58
62057;BME280;48016;50.284;18.860;2023-03-18T13:27:36;98177.04;;;13.08;28.50
62057;BME280;48016;50.284;18.860;2023-03-18T13:42:45;98168.88;;;13.29;29.01
62057;BME280;48016;50.284;18.860;2023-03-18T13:45:38;98170.84;;;13.34;28.87
62057;BME280;48016;50.284;18.860;2023-03-18T13:54:41;98164.31;;;13.37;28.88
62057;BME280;48016;50.284;18.860;2023-03-18T13:59:47;98157.84;;;13.35;28.88
62057;BME280;48016;50.284;18.860;2023-03-18T14:05:34;98152.42;;;13.30;28.19
62057;BME280;48016;50.284;18.860;2023-03-18T14:14:23;98149.23;;;13.30;28.09
62057;BME280;48016;50.284;18.860;2023-03-18T14:22:42;98140.59;;;13.24;28.21
62057;BME280;48016;50.284;18.860;2023-03-18T14:25:39;98145.25;;;13.22;28.28
62057;BME280;48016;50.284;18.860;2023-03-18T14:36:08;98139.88;;;13.24;27.68
62057;BME280;48016;50.284;18.860;2023-03-18T14:38:48;98139.94;;;13.25;27.89
62057;BME280;48016;50.284;18.860;2023-03-18T14:41:43;98135.39;;;13.27;28.04
62057;BME280;48016;50.284;18.860;2023-03-18T14:47:36;98134.95;;;13.27;28.21
62057;BME280;48016;50.284;18.860;2023-03-18T14:50:27;98131.52;;;13.25;28.17
62057;BME280;48016;50.284;18.860;2023-03-18T14:55:33;98130.60;;;13.18;28.49
62057;BME280;48016;50.284;18.860;2023-03-18T15:01:07;98133.95;;;13.07;27.92
62057;BME280;48016;50.284;18.860;2023-03-18T15:03:42;98132.60;;;13.03;28.12
62057;BME280;48016;50.284;18.860;2023-03-18T15:06:16;98132.98;;;12.99;27.85
62057;BME280;48016;50.284;18.860;2023-03-18T15:09:03;98135.27;;;12.95;28.14
62057;BME280;48016;50.284;18.860;2023-03-18T15:11:40;98130.88;;;12.89;27.98
62057;BME280;48016;50.284;18.860;2023-03-18T15:14:11;98128.88;;;12.84;28.10
62057;BME280;48016;50.284;18.860;2023-03-18T15:16:38;98129.70;;;12.79;27.77
62057;BME280;48016;50.284;18.860;2023-03-18T15:19:10;98129.17;;;12.73;27.75
62057;BME280;48016;50.284;18.860;2023-03-18T15:21:37;98129.02;;;12.67;27.61
62057;BME280;48016;50.284;18.860;2023-03-18T15:24:25;98133.02;;;12.60;27.94
62057;BME280;48016;50.284;18.860;2023-03-18T15:27:12;98129.28;;;12.53;27.67
62057;BME280;48016;50.284;18.860;2023-03-18T15:30:03;98132.21;;;12.45;28.13
62057;BME280;48016;50.284;18.860;2023-03-18T15:35:31;98138.39;;;12.33;28.31
62057;BME280;48016;50.284;18.860;2023-03-18T15:38:08;98134.21;;;12.26;28.47
62057;BME280;48016;50.284;18.860;2023-03-18T15:46:27;98129.92;;;12.07;28.85
62057;BME280;48016;50.284;18.860;2023-03-18T15:48:59;98136.84;;;12.02;29.07
62057;BME280;48016;50.284;18.860;2023-03-18T15:51:45;98138.25;;;11.97;28.85
62057;BME280;48016;50.284;18.860;2023-03-18T15:54:16;98141.80;;;11.92;29.06
62057;BME280;48016;50.284;18.860;2023-03-18T15:56:49;98145.25;;;11.88;29.08
62057;BME280;48016;50.284;18.860;2023-03-18T15:59:27;98146.53;;;11.85;29.24
62057;BME280;48016;50.284;18.860;2023-03-18T16:01:58;98148.95;;;11.81;29.32
62057;BME280;48016;50.284;18.860;2023-03-18T16:04:29;98147.26;;;11.75;29.53
62057;BME280;48016;50.284;18.860;2023-03-18T16:06:58;98152.64;;;11.70;29.52
62057;BME280;48016;50.284;18.860;2023-03-18T16:09:26;98155.29;;;11.65;29.65
62057;BME280;48016;50.284;18.860;2023-03-18T16:12:00;98155.48;;;11.60;29.69
62057;BME280;48016;50.284;18.860;2023-03-18T16:14:36;98158.38;;;11.55;29.90